Time;durP1;ratioP1;P1;durP2;ratioP2;P2;SDS_P1;SDS_P2;PMS_P1;PMS_P2;Temp;Humidity;BMP_temperature;BMP_pressure;BME280_temperature;BME280_humidity;BME280_pressure;Samples;Min_cycle;Max_cycle;Signal;HPM_P1;HPM_P2
2021/12/20 00:02:09;;;;;;;16.10;5.23;;;3.60;99.90;;;;;;4951345;28;20500;-62
2021/12/20 00:04:39;;;;;;;15.40;4.80;;;3.60;99.90;;;;;;4958418;28;20498;-62
2021/12/20 00:07:07;;;;;;;14.37;4.53;;;3.70;99.90;;;;;;4971154;28;20487;-62
2021/12/20 00:09:36;;;;;;;17.57;5.23;;;3.70;99.90;;;;;;4969675;28;20540;-62
2021/12/20 00:12:05;;;;;;;16.73;4.90;;;3.70;99.90;;;;;;4954719;28;21368;-62
2021/12/20 00:14:33;;;;;;;17.60;4.57;;;3.70;99.90;;;;;;4954802;28;20515;-62
2021/12/20 00:17:01;;;;;;;16.33;5.13;;;3.60;99.90;;;;;;4953483;28;20488;-62
2021/12/20 00:19:29;;;;;;;17.60;5.40;;;3.50;99.90;;;;;;4954781;28;20475;-62
2021/12/20 00:21:57;;;;;;;12.83;4.23;;;3.50;99.90;;;;;;4968383;28;20489;-62
2021/12/20 00:24:28;;;;;;;17.07;4.87;;;3.40;99.90;;;;;;4972825;28;20505;-63
2021/12/20 00:26:58;;;;;;;21.17;5.10;;;3.30;99.90;;;;;;4974389;28;20826;-62
2021/12/20 00:29:26;;;;;;;18.53;4.67;;;3.20;99.90;;;;;;4974020;28;20474;-62
2021/12/20 00:31:54;;;;;;;11.97;3.93;;;3.20;99.90;;;;;;4974028;28;20837;-62
2021/12/20 00:34:22;;;;;;;16.47;4.37;;;3.30;99.90;;;;;;4973759;28;20478;-62
2021/12/20 00:36:57;;;;;;;14.73;3.90;;;3.50;99.90;;;;;;4966362;28;20493;-62
2021/12/20 00:42:21;;;;;;;13.07;4.23;;;3.40;99.90;;;;;;4949911;28;21029;-62
2021/12/20 00:44:49;;;;;;;12.33;4.73;;;3.30;99.90;;;;;;4973564;28;20454;-62
2021/12/20 00:47:17;;;;;;;19.60;4.67;;;3.00;99.90;;;;;;4969261;28;20577;-62
2021/12/20 00:49:45;;;;;;;17.20;4.23;;;3.00;99.90;;;;;;4954288;28;20811;-62
2021/12/20 00:52:13;;;;;;;11.20;4.17;;;3.20;99.90;;;;;;4966100;28;20510;-62
2021/12/20 00:54:41;;;;;;;15.17;4.13;;;3.30;99.90;;;;;;4973573;28;20467;-62
2021/12/20 00:57:09;;;;;;;13.07;4.83;;;3.20;99.90;;;;;;4966131;28;20509;-62
2021/12/20 00:59:38;;;;;;;11.37;4.20;;;3.20;99.90;;;;;;4973475;28;20483;-62
2021/12/20 01:02:06;;;;;;;8.97;3.60;;;3.20;99.90;;;;;;4970437;28;20481;-62
2021/12/20 01:04:35;;;;;;;15.73;4.70;;;3.00;99.90;;;;;;4954030;28;20519;-62
2021/12/20 01:07:03;;;;;;;13.63;3.90;;;3.20;99.90;;;;;;4956002;28;20487;-62
2021/12/20 01:09:31;;;;;;;11.80;4.17;;;3.30;99.90;;;;;;4972962;28;20814;-62
2021/12/20 01:12:03;;;;;;;12.87;4.13;;;3.30;99.90;;;;;;4970864;28;20552;-62
2021/12/20 01:14:34;;;;;;;12.43;3.90;;;3.20;99.90;;;;;;4953888;28;20990;-62
2021/12/20 01:17:05;;;;;;;13.20;3.60;;;2.80;99.90;;;;;;4955978;28;20480;-62
2021/12/20 01:19:34;;;;;;;14.07;3.80;;;2.80;99.90;;;;;;4972990;28;20480;-61
2021/12/20 01:22:04;;;;;;;9.87;3.70;;;2.90;99.90;;;;;;4972935;28;20472;-62
2021/12/20 01:24:33;;;;;;;10.87;4.30;;;2.90;99.90;;;;;;4972958;28;20595;-62
2021/12/20 01:27:01;;;;;;;14.00;3.83;;;3.10;99.90;;;;;;4970682;28;20481;-62
2021/12/20 01:29:29;;;;;;;14.33;4.17;;;3.00;99.90;;;;;;4953643;28;20644;-62
2021/12/20 01:31:57;;;;;;;10.43;4.13;;;2.90;99.90;;;;;;4953941;28;20551;-62
2021/12/20 01:34:27;;;;;;;12.73;3.67;;;3.00;99.90;;;;;;4953662;28;20480;-62
2021/12/20 01:36:55;;;;;;;15.63;5.40;;;3.10;99.90;;;;;;4954318;28;20468;-62
2021/12/20 01:39:24;;;;;;;10.37;3.10;;;3.10;99.90;;;;;;4972678;28;20479;-62
2021/12/20 01:41:53;;;;;;;11.20;3.63;;;3.00;99.90;;;;;;4971621;28;20470;-62
2021/12/20 01:44:21;;;;;;;16.17;4.20;;;3.00;99.90;;;;;;4953396;28;21038;-62
2021/12/20 01:46:50;;;;;;;11.90;3.73;;;3.10;99.90;;;;;;4965098;28;20559;-61
2021/12/20 01:49:18;;;;;;;17.03;5.10;;;3.00;99.90;;;;;;4969653;28;20557;-61
2021/12/20 01:52:01;;;;;;;10.23;3.80;;;2.90;99.90;;;;;;4959239;28;20474;-62
2021/12/20 01:54:30;;;;;;;15.20;4.13;;;2.90;99.90;;;;;;4963106;28;20552;-62
2021/12/20 01:56:59;;;;;;;11.23;3.37;;;2.70;99.90;;;;;;4964976;28;20505;-62
2021/12/20 01:59:28;;;;;;;11.20;3.93;;;2.60;99.90;;;;;;4972697;28;20485;-62
2021/12/20 02:01:56;;;;;;;12.63;3.43;;;2.70;99.90;;;;;;4972502;28;20533;-62
2021/12/20 02:04:26;;;;;;;14.87;3.90;;;2.70;99.90;;;;;;4972383;28;20472;-62
2021/12/20 02:06:55;;;;;;;10.60;3.30;;;2.60;99.90;;;;;;4968884;28;20537;-62
2021/12/20 02:09:24;;;;;;;10.83;3.23;;;2.40;99.90;;;;;;4970207;28;20487;-62
2021/12/20 02:11:52;;;;;;;16.67;3.97;;;2.50;99.90;;;;;;4971825;28;20549;-62
2021/12/20 02:14:20;;;;;;;12.33;3.67;;;2.40;99.90;;;;;;4972283;28;20475;-62
2021/12/20 02:16:48;;;;;;;13.83;3.63;;;2.30;99.90;;;;;;4964181;28;20637;-61
2021/12/20 02:19:18;;;;;;;10.67;3.70;;;2.50;99.90;;;;;;4952881;28;20884;-61
2021/12/20 02:21:48;;;;;;;11.33;3.30;;;2.60;99.90;;;;;;4952689;28;20850;-62
2021/12/20 02:24:16;;;;;;;11.27;3.13;;;2.60;99.90;;;;;;4972037;28;21068;-62
2021/12/20 02:26:44;;;;;;;9.33;3.30;;;2.70;99.90;;;;;;4971856;28;20474;-61
2021/12/20 02:29:12;;;;;;;14.17;3.40;;;2.60;99.90;;;;;;4972004;28;20566;-62
2021/12/20 02:37:21;;;;;;;11.57;3.37;;;2.50;99.90;;;;;;4966377;28;20505;-62
2021/12/20 02:39:49;;;;;;;12.80;4.17;;;2.40;99.90;;;;;;4958831;28;20907;-61
2021/12/20 02:42:22;;;;;;;14.03;3.37;;;2.70;99.90;;;;;;4967285;28;20471;-61
2021/12/20 02:45:05;;;;;;;12.67;3.30;;;2.50;99.90;;;;;;4952565;28;20487;-62
2021/12/20 02:47:33;;;;;;;11.10;4.00;;;2.30;99.90;;;;;;4963876;28;20478;-62
2021/12/20 02:50:01;;;;;;;12.93;3.87;;;2.00;99.90;;;;;;4968226;28;20557;-62
2021/12/20 02:52:32;;;;;;;11.73;3.50;;;1.80;99.90;;;;;;4969392;28;20481;-61
2021/12/20 02:55:00;;;;;;;11.07;3.60;;;1.80;99.90;;;;;;4956604;28;20814;-61
2021/12/20 02:57:28;;;;;;;8.43;2.80;;;1.80;99.90;;;;;;4961895;28;20477;-62
2021/12/20 02:59:56;;;;;;;11.70;4.10;;;2.00;99.90;;;;;;4976112;28;21037;-61
2021/12/20 03:02:24;;;;;;;9.03;2.87;;;2.20;99.90;;;;;;4975615;28;20812;-61
2021/12/20 03:04:53;;;;;;;10.20;4.17;;;2.30;99.90;;;;;;4975761;28;20991;-62
2021/12/20 03:07:25;;;;;;;10.07;3.30;;;1.90;99.90;;;;;;4969888;28;20502;-61
2021/12/20 03:10:01;;;;;;;11.43;3.33;;;2.10;99.90;;;;;;4975402;28;20469;-61
2021/12/20 03:12:32;;;;;;;8.80;3.00;;;2.00;99.90;;;;;;4974594;28;20569;-62
2021/12/20 03:15:05;;;;;;;9.90;3.17;;;2.30;99.90;;;;;;4975442;28;20505;-61
2021/12/20 03:17:35;;;;;;;12.03;4.30;;;2.40;99.90;;;;;;4961263;28;20502;-61
2021/12/20 03:20:04;;;;;;;10.40;3.30;;;2.20;99.90;;;;;;4956060;28;20470;-62
2021/12/20 03:22:32;;;;;;;8.63;2.90;;;2.30;99.90;;;;;;4955735;28;20503;-62
2021/12/20 03:25:02;;;;;;;10.30;2.90;;;2.30;99.90;;;;;;4955941;28;20547;-61
2021/12/20 03:27:30;;;;;;;9.10;3.40;;;2.20;99.90;;;;;;4961523;28;20474;-61
2021/12/20 03:29:58;;;;;;;11.60;4.13;;;2.20;99.90;;;;;;4975130;28;20470;-62
2021/12/20 03:32:26;;;;;;;10.47;3.03;;;2.00;99.90;;;;;;4966788;28;20481;-62
2021/12/20 03:34:54;;;;;;;10.63;3.10;;;1.70;99.90;;;;;;4975146;28;20474;-61
2021/12/20 03:37:23;;;;;;;7.63;3.07;;;1.60;99.90;;;;;;4971555;28;20469;-62
2021/12/20 03:39:51;;;;;;;8.10;3.40;;;2.00;99.90;;;;;;4972605;28;20495;-62
2021/12/20 03:42:20;;;;;;;9.50;2.83;;;2.20;99.90;;;;;;4968476;28;20483;-61
2021/12/20 03:44:48;;;;;;;11.17;3.30;;;2.30;99.90;;;;;;4974974;28;20498;-61
2021/12/20 03:47:16;;;;;;;8.50;3.57;;;2.40;99.90;;;;;;4970404;28;20484;-61
2021/12/20 03:49:45;;;;;;;9.03;3.00;;;1.80;99.90;;;;;;4955204;28;20506;-61
2021/12/20 03:52:13;;;;;;;9.70;3.37;;;1.60;99.90;;;;;;4955459;28;20483;-62
2021/12/20 03:54:41;;;;;;;8.23;3.10;;;1.40;99.90;;;;;;4955339;28;20506;-62
2021/12/20 03:57:09;;;;;;;9.37;2.57;;;1.70;99.90;;;;;;4958419;28;20474;-61
2021/12/20 03:59:38;;;;;;;9.43;3.20;;;1.90;99.90;;;;;;4974585;28;20577;-61
2021/12/20 04:02:07;;;;;;;7.87;2.63;;;1.70;99.90;;;;;;4967162;28;20471;-62
2021/12/20 04:04:35;;;;;;;13.47;3.37;;;1.90;99.90;;;;;;4973877;28;20482;-62
2021/12/20 04:07:04;;;;;;;9.00;3.23;;;1.80;99.90;;;;;;4971711;28;20473;-61
2021/12/20 04:09:32;;;;;;;10.37;3.00;;;1.90;99.90;;;;;;4954875;28;20562;-62
2021/12/20 04:12:06;;;;;;;11.40;2.70;;;2.00;99.90;;;;;;4954624;28;20471;-62
2021/12/20 04:14:34;;;;;;;7.50;2.80;;;1.90;99.90;;;;;;4954872;28;20537;-61
2021/12/20 04:17:05;;;;;;;11.70;3.47;;;1.80;99.90;;;;;;4954736;28;20476;-62
2021/12/20 04:19:33;;;;;;;9.83;2.97;;;1.80;99.90;;;;;;4954889;28;20994;-62
2021/12/20 04:22:01;;;;;;;8.67;2.83;;;1.50;99.90;;;;;;4954761;28;20477;-61
2021/12/20 04:24:29;;;;;;;10.43;2.50;;;1.30;99.90;;;;;;4954748;28;20562;-61
2021/12/20 04:26:57;;;;;;;7.77;2.70;;;1.60;99.90;;;;;;4954896;28;20479;-62
2021/12/20 04:29:27;;;;;;;11.13;2.67;;;1.90;99.90;;;;;;4955183;28;20487;-61
2021/12/20 04:31:56;;;;;;;7.30;2.00;;;1.90;99.90;;;;;;4960192;28;20470;-61
2021/12/20 04:34:27;;;;;;;8.20;2.57;;;2.00;99.90;;;;;;4973748;28;20514;-61
2021/12/20 04:36:57;;;;;;;9.37;2.67;;;2.10;99.90;;;;;;4966407;28;20471;-61
2021/12/20 04:39:30;;;;;;;10.97;2.80;;;2.00;99.90;;;;;;4973880;28;20483;-60
2021/12/20 04:42:00;;;;;;;5.57;2.43;;;1.70;99.90;;;;;;4973576;28;20557;-62
2021/12/20 04:44:28;;;;;;;5.10;2.33;;;1.50;99.90;;;;;;4973754;28;20485;-62
2021/12/20 04:46:56;;;;;;;5.93;2.50;;;1.50;99.90;;;;;;4972642;28;20566;-62
2021/12/20 04:49:26;;;;;;;6.90;1.90;;;1.70;99.90;;;;;;4954504;28;20471;-60
2021/12/20 04:51:54;;;;;;;7.60;2.60;;;1.80;99.90;;;;;;4954410;28;20863;-61
2021/12/20 04:54:26;;;;;;;7.40;2.30;;;1.80;99.90;;;;;;4954556;28;20459;-61
2021/12/20 04:56:55;;;;;;;8.47;2.50;;;1.90;99.90;;;;;;4955525;28;20499;-61
2021/12/20 04:59:23;;;;;;;6.43;2.50;;;1.90;99.90;;;;;;4973741;28;20474;-61
2021/12/20 05:01:52;;;;;;;14.73;2.77;;;1.80;99.90;;;;;;4970457;28;21017;-61
2021/12/20 05:04:20;;;;;;;10.83;2.93;;;2.00;99.90;;;;;;4949173;28;20460;-61
2021/12/20 05:06:50;;;;;;;7.90;2.33;;;2.00;99.90;;;;;;4943502;28;20486;-61
2021/12/20 05:09:19;;;;;;;9.13;2.40;;;2.10;99.90;;;;;;4945655;28;20479;-61
2021/12/20 05:11:50;;;;;;;9.77;2.43;;;2.10;99.90;;;;;;4942769;28;20507;-62
2021/12/20 05:14:18;;;;;;;4.60;2.07;;;2.20;99.90;;;;;;4945640;28;20551;-61
2021/12/20 05:16:46;;;;;;;7.70;2.50;;;2.20;99.90;;;;;;4944360;28;20554;-61
2021/12/20 05:19:15;;;;;;;10.97;2.50;;;2.10;99.90;;;;;;4946792;28;20507;-61
2021/12/20 05:21:43;;;;;;;7.63;2.27;;;1.70;99.90;;;;;;4942567;28;20476;-61
2021/12/20 05:24:12;;;;;;;5.27;2.20;;;1.60;99.90;;;;;;4943628;28;20519;-61
2021/12/20 05:26:40;;;;;;;7.00;1.90;;;1.40;99.90;;;;;;4937433;28;20484;-61
2021/12/20 05:29:11;;;;;;;10.00;2.90;;;1.40;99.90;;;;;;4972544;28;20483;-61
2021/12/20 05:31:39;;;;;;;9.13;2.80;;;1.80;99.90;;;;;;4970949;28;20478;-61
2021/12/20 05:34:07;;;;;;;14.80;4.07;;;2.00;99.90;;;;;;4966781;28;20566;-61
2021/12/20 05:36:35;;;;;;;10.93;4.97;;;2.10;99.90;;;;;;4966282;28;20589;-61
2021/12/20 05:39:04;;;;;;;13.93;4.97;;;2.00;99.90;;;;;;4953371;28;20470;-62
2021/12/20 05:41:34;;;;;;;11.23;4.77;;;1.80;99.90;;;;;;4953255;28;20503;-61
2021/12/20 05:44:02;;;;;;;14.77;5.73;;;1.50;99.90;;;;;;4953453;28;20990;-60
2021/12/20 05:46:30;;;;;;;9.80;4.97;;;1.20;99.90;;;;;;4953173;28;20510;-61
2021/12/20 05:48:58;;;;;;;15.53;4.60;;;1.10;99.90;;;;;;4953210;28;20475;-61
2021/12/20 05:51:28;;;;;;;12.10;5.13;;;1.60;99.90;;;;;;4953320;28;20486;-61
2021/12/20 05:53:56;;;;;;;10.53;5.13;;;1.40;99.90;;;;;;4953194;28;20467;-61
2021/12/20 05:56:24;;;;;;;9.60;4.33;;;1.10;99.90;;;;;;4959293;28;20538;-61
2021/12/20 05:58:53;;;;;;;10.13;4.43;;;1.00;99.90;;;;;;4968708;28;20915;-61
2021/12/20 06:01:22;;;;;;;11.63;4.90;;;1.70;99.90;;;;;;4972362;28;20470;-61
2021/12/20 06:03:50;;;;;;;14.80;4.77;;;1.70;99.90;;;;;;4947587;28;20470;-61
2021/12/20 06:06:18;;;;;;;9.57;4.30;;;1.70;99.90;;;;;;4933996;28;20973;-61
2021/12/20 06:08:46;;;;;;;14.33;5.00;;;2.10;99.90;;;;;;4949452;28;20828;-61
2021/12/20 06:11:14;;;;;;;9.90;3.83;;;2.10;99.90;;;;;;4947293;28;20483;-61
2021/12/20 06:13:43;;;;;;;9.50;3.67;;;1.60;99.90;;;;;;4955203;28;20477;-62
2021/12/20 06:16:13;;;;;;;7.90;3.73;;;1.20;99.90;;;;;;4957369;28;20923;-61
2021/12/20 06:18:41;;;;;;;10.47;3.90;;;1.10;99.90;;;;;;4964190;28;20507;-61
2021/12/20 06:21:09;;;;;;;9.70;4.40;;;0.90;99.90;;;;;;4971814;28;20905;-61
2021/12/20 06:23:37;;;;;;;15.97;4.63;;;0.90;99.90;;;;;;4956258;28;20478;-61
2021/12/20 06:26:06;;;;;;;11.77;4.30;;;1.10;99.90;;;;;;4959428;28;20515;-61
2021/12/20 06:28:34;;;;;;;11.57;4.20;;;1.30;99.90;;;;;;4956936;28;20475;-61
2021/12/20 06:31:02;;;;;;;8.27;4.00;;;1.00;99.90;;;;;;4952779;28;21029;-61
2021/12/20 06:33:31;;;;;;;12.10;4.67;;;0.70;99.90;;;;;;4952326;28;20482;-62
2021/12/20 06:36:00;;;;;;;10.13;4.00;;;0.60;99.90;;;;;;4952477;28;21043;-61
2021/12/20 06:38:28;;;;;;;7.97;3.70;;;0.70;99.90;;;;;;4951928;28;20475;-61
2021/12/20 06:40:56;;;;;;;8.33;3.30;;;1.00;99.90;;;;;;4952852;28;20470;-61
2021/12/20 06:43:24;;;;;;;10.63;3.07;;;0.80;99.90;;;;;;4951714;28;20501;-60
2021/12/20 06:45:55;;;;;;;7.53;2.80;;;0.60;99.90;;;;;;4952170;28;20963;-61
2021/12/20 06:48:30;;;;;;;14.57;5.27;;;0.50;99.90;;;;;;4952458;28;20986;-61
2021/12/20 06:51:03;;;;;;;14.03;5.33;;;1.00;99.90;;;;;;4952376;28;20504;-62
2021/12/20 06:53:31;;;;;;;17.17;5.90;;;1.40;99.90;;;;;;4966292;28;20481;-62
2021/12/20 06:55:59;;;;;;;13.70;5.73;;;1.40;99.90;;;;;;4965027;28;20512;-62
2021/12/20 06:58:27;;;;;;;17.73;5.83;;;1.20;99.90;;;;;;4965474;28;20886;-62
2021/12/20 07:00:56;;;;;;;14.43;6.60;;;0.80;99.90;;;;;;4964689;28;20488;-62
2021/12/20 07:03:24;;;;;;;10.83;4.53;;;0.80;99.90;;;;;;4971365;28;20991;-62
2021/12/20 07:05:52;;;;;;;14.07;5.40;;;1.30;99.90;;;;;;4971709;28;20551;-62
2021/12/20 07:08:22;;;;;;;17.67;6.20;;;1.50;99.90;;;;;;4971388;28;20470;-62
2021/12/20 07:10:51;;;;;;;13.17;5.50;;;1.40;99.90;;;;;;4959582;28;20476;-62
2021/12/20 07:13:19;;;;;;;10.60;4.20;;;1.60;99.90;;;;;;4952167;28;20459;-62
2021/12/20 07:15:47;;;;;;;15.47;5.77;;;1.60;99.90;;;;;;4956650;28;20489;-62
2021/12/20 07:18:15;;;;;;;15.97;5.83;;;1.80;99.90;;;;;;4967537;28;20516;-61
2021/12/20 07:20:43;;;;;;;13.93;4.93;;;1.60;99.90;;;;;;4971302;28;20482;-62
2021/12/20 07:23:11;;;;;;;12.67;5.00;;;1.10;99.90;;;;;;4971022;28;20533;-61
2021/12/20 07:25:41;;;;;;;8.27;5.07;;;0.70;99.90;;;;;;4948211;28;20486;-61
2021/12/20 07:28:09;;;;;;;10.83;4.77;;;0.70;99.90;;;;;;4971227;28;20562;-61
2021/12/20 07:30:37;;;;;;;14.70;6.00;;;0.50;99.90;;;;;;4961701;28;20482;-62
2021/12/20 07:33:05;;;;;;;12.13;5.67;;;0.40;99.90;;;;;;4952553;28;20858;-61
2021/12/20 07:35:33;;;;;;;14.13;7.20;;;0.40;99.90;;;;;;4955692;28;20903;-62
2021/12/20 07:38:03;;;;;;;11.13;7.07;;;0.40;99.90;;;;;;4955603;28;20557;-62
2021/12/20 07:40:34;;;;;;;14.70;7.40;;;1.00;99.90;;;;;;4955486;28;20533;-62
2021/12/20 07:43:05;;;;;;;13.47;6.73;;;1.20;99.90;;;;;;4955598;28;20999;-62
2021/12/20 07:45:33;;;;;;;13.00;6.20;;;1.20;99.90;;;;;;4955435;28;20500;-62
2021/12/20 07:48:04;;;;;;;16.23;5.90;;;1.10;99.90;;;;;;4955422;28;20478;-62
2021/12/20 07:50:33;;;;;;;9.03;4.43;;;0.80;99.90;;;;;;4955349;28;20479;-62
2021/12/20 07:53:01;;;;;;;9.17;4.03;;;0.60;99.90;;;;;;4955390;28;20471;-62
2021/12/20 07:55:30;;;;;;;9.77;4.33;;;0.40;99.90;;;;;;4957105;28;21026;-62
2021/12/20 07:57:59;;;;;;;9.07;4.00;;;0.30;99.90;;;;;;4960785;28;20469;-62
2021/12/20 08:00:29;;;;;;;10.27;4.67;;;0.30;99.90;;;;;;4969608;28;20529;-62
2021/12/20 08:02:58;;;;;;;14.73;5.47;;;0.60;99.90;;;;;;4974321;28;21060;-61
2021/12/20 08:05:32;;;;;;;12.93;6.03;;;0.70;99.90;;;;;;4974539;28;20557;-62
2021/12/20 08:08:03;;;;;;;15.60;6.80;;;0.50;99.90;;;;;;4961729;28;20557;-61
2021/12/20 08:10:32;;;;;;;16.53;6.47;;;0.50;99.90;;;;;;4954771;28;20541;-62
2021/12/20 08:13:00;;;;;;;11.47;6.27;;;0.30;99.90;;;;;;4958550;28;20469;-62
2021/12/20 08:15:30;;;;;;;11.40;5.83;;;0.20;99.90;;;;;;4954932;28;20479;-61
2021/12/20 08:17:58;;;;;;;10.83;5.20;;;0.10;99.90;;;;;;4954879;28;21022;-62
2021/12/20 08:20:27;;;;;;;13.47;5.80;;;0.10;99.90;;;;;;4955902;28;20490;-62
2021/12/20 08:22:57;;;;;;;14.97;6.90;;;0.10;99.90;;;;;;4964867;28;20469;-62
2021/12/20 08:25:25;;;;;;;12.03;6.57;;;0.10;99.90;;;;;;4974267;28;20517;-62
2021/12/20 08:27:53;;;;;;;15.47;8.37;;;0.20;99.90;;;;;;4962990;28;20471;-62
2021/12/20 08:30:23;;;;;;;13.27;8.33;;;0.20;99.90;;;;;;4954651;28;20467;-62
2021/12/20 08:32:53;;;;;;;13.97;8.97;;;0.30;99.90;;;;;;4954675;28;20477;-62
2021/12/20 08:35:22;;;;;;;14.25;7.65;;;0.30;99.90;;;;;;1283447;28;10022713;-62
2021/12/20 08:37:53;;;;;;;17.17;8.53;;;0.30;99.90;;;;;;3937296;28;10001622;-62
2021/12/20 08:40:22;;;;;;;12.53;8.17;;;0.30;99.90;;;;;;4973721;28;20541;-62
2021/12/20 08:42:50;;;;;;;17.83;8.20;;;0.40;99.90;;;;;;4973548;28;20462;-61
2021/12/20 08:45:19;;;;;;;13.30;7.80;;;0.40;99.90;;;;;;4972897;28;20550;-62
2021/12/20 08:47:52;;;;;;;12.13;7.20;;;0.40;99.90;;;;;;4973768;28;20486;-61
2021/12/20 08:50:23;;;;;;;15.27;7.57;;;0.50;99.90;;;;;;4965886;28;20491;-62
2021/12/20 08:52:51;;;;;;;15.23;7.23;;;0.50;99.90;;;;;;4962747;28;20909;-62
2021/12/20 08:55:20;;;;;;;12.30;7.30;;;0.50;99.90;;;;;;4973597;28;20490;-62
2021/12/20 08:57:48;;;;;;;13.33;6.60;;;0.60;99.90;;;;;;4973202;28;20477;-61
2021/12/20 09:00:21;;;;;;;12.27;6.97;;;0.70;99.90;;;;;;4973579;28;20482;-60
2021/12/20 09:02:50;;;;;;;12.63;6.10;;;0.80;99.90;;;;;;4964131;28;20813;-61
2021/12/20 09:05:21;;;;;;;13.53;6.43;;;1.20;99.90;;;;;;4973596;28;20471;-61
2021/12/20 09:07:49;;;;;;;14.20;4.93;;;1.20;99.90;;;;;;4964920;28;20543;-61
2021/12/20 09:10:18;;;;;;;10.70;4.97;;;1.30;99.90;;;;;;4953916;28;20471;-61
2021/12/20 09:12:46;;;;;;;9.43;5.10;;;1.50;99.90;;;;;;4953703;28;20502;-61
2021/12/20 09:15:17;;;;;;;10.03;5.87;;;1.50;99.90;;;;;;4954057;28;20474;-62
2021/12/20 09:17:46;;;;;;;11.97;4.90;;;1.50;99.90;;;;;;4953721;28;20490;-62
2021/12/20 09:20:15;;;;;;;15.97;5.33;;;1.50;99.90;;;;;;4953923;28;20809;-61
2021/12/20 09:22:51;;;;;;;13.60;5.17;;;1.50;99.90;;;;;;4965078;28;20487;-61
2021/12/20 09:25:21;;;;;;;6.13;4.23;;;1.30;99.90;;;;;;4972196;28;20901;-61
2021/12/20 09:27:50;;;;;;;7.97;4.53;;;1.40;99.90;;;;;;4964180;28;20502;-61
2021/12/20 09:30:18;;;;;;;9.63;4.10;;;1.30;99.90;;;;;;4953603;28;20462;-61
2021/12/20 09:32:48;;;;;;;8.73;4.20;;;1.20;99.90;;;;;;4961405;28;20493;-61
2021/12/20 09:35:16;;;;;;;8.87;3.60;;;1.60;99.90;;;;;;4970305;28;20488;-62
2021/12/20 09:37:50;;;;;;;7.77;3.67;;;1.90;99.90;;;;;;4972326;28;20478;-61
2021/12/20 09:40:30;;;;;;;7.47;3.63;;;2.10;99.90;;;;;;4971830;28;20502;-61
2021/12/20 09:43:02;;;;;;;8.90;3.93;;;2.20;99.90;;;;;;4958059;28;20475;-62
2021/12/20 09:45:32;;;;;;;5.57;3.20;;;2.20;99.90;;;;;;4953302;28;20877;-61
2021/12/20 09:48:01;;;;;;;4.87;2.70;;;2.00;99.90;;;;;;4962839;28;20478;-61
2021/12/20 09:50:29;;;;;;;7.90;3.50;;;2.10;99.90;;;;;;4972182;28;20466;-61
2021/12/20 09:53:04;;;;;;;6.23;2.80;;;2.10;99.90;;;;;;4972770;28;20472;-61
2021/12/20 09:55:33;;;;;;;8.10;3.60;;;2.30;99.90;;;;;;4972171;28;20485;-61
2021/12/20 09:58:03;;;;;;;5.77;3.13;;;2.60;99.90;;;;;;4964197;28;20534;-61
2021/12/20 10:00:35;;;;;;;6.33;3.10;;;2.60;99.90;;;;;;4972158;28;20504;-62
2021/12/20 10:03:04;;;;;;;7.10;3.33;;;2.80;99.90;;;;;;4959488;28;21068;-62
2021/12/20 10:05:35;;;;;;;10.00;3.10;;;2.80;99.90;;;;;;4972095;28;20595;-62
2021/12/20 10:08:13;;;;;;;4.27;2.70;;;2.70;99.90;;;;;;4968743;28;20530;-62
2021/12/20 10:10:46;;;;;;;5.60;2.50;;;3.10;99.90;;;;;;4964046;28;20513;-62
2021/12/20 10:13:23;;;;;;;5.40;2.73;;;3.10;99.90;;;;;;4960290;28;20496;-62
2021/12/20 10:15:52;;;;;;;5.20;2.60;;;3.00;99.90;;;;;;4953061;28;20475;-62
2021/12/20 10:18:21;;;;;;;8.00;2.93;;;3.00;99.90;;;;;;4952783;28;20464;-62
2021/12/20 10:20:51;;;;;;;5.83;2.60;;;3.20;99.90;;;;;;4952771;28;20472;-62
2021/12/20 10:23:23;;;;;;;7.43;3.13;;;3.50;99.90;;;;;;4954403;28;20487;-62
2021/12/20 10:25:53;;;;;;;4.80;2.40;;;3.60;99.90;;;;;;4971943;28;20482;-62
2021/12/20 10:28:34;;;;;;;5.30;3.03;;;3.60;99.90;;;;;;4962890;28;20487;-62
2021/12/20 10:31:05;;;;;;;4.53;2.63;;;3.70;99.90;;;;;;4971466;28;20515;-62
2021/12/20 10:33:37;;;;;;;5.97;2.70;;;3.80;99.90;;;;;;4971528;28;20477;-62
2021/12/20 10:36:08;;;;;;;3.85;2.25;;;3.90;99.90;;;;;;966354;28;10024047;-62
2021/12/20 10:38:39;;;;;;;6.60;2.50;;;4.00;99.90;;;;;;4967790;28;21005;-62
2021/12/20 10:41:11;;;;;;;5.33;2.77;;;4.00;99.90;;;;;;4967779;28;21094;-62
2021/12/20 10:43:48;;;;;;;7.43;2.20;;;4.10;99.90;;;;;;4952348;28;20998;-63
2021/12/20 10:46:19;;;;;;;6.70;2.20;;;4.20;99.90;;;;;;4954643;28;20871;-61
2021/12/20 10:48:50;;;;;;;5.97;2.40;;;4.30;99.90;;;;;;4955083;28;20480;-62
2021/12/20 10:51:21;;;;;;;7.03;2.43;;;4.40;99.90;;;;;;4941748;28;20563;-62
2021/12/20 10:53:57;;;;;;;6.20;2.40;;;4.40;99.90;;;;;;4947962;28;20494;-62
2021/12/20 10:56:27;;;;;;;3.60;2.20;;;4.50;99.90;;;;;;4948364;28;20485;-62
2021/12/20 10:58:57;;;;;;;5.47;2.23;;;4.50;99.90;;;;;;4944348;28;20482;-62
2021/12/20 11:01:51;;;;;;;7.03;2.00;;;4.60;99.90;;;;;;4942519;28;20477;-63
2021/12/20 11:04:25;;;;;;;5.63;2.00;;;4.60;99.90;;;;;;4941632;28;20477;-62
2021/12/20 11:09:04;;;;;;;5.83;2.00;;;4.40;99.90;;;;;;4943836;28;20846;-62
2021/12/20 11:09:59;;;;;;;4.97;2.00;;;4.30;99.90;;;;;;4944591;28;20472;-63
2021/12/20 11:12:31;;;;;;;4.47;1.93;;;4.00;99.90;;;;;;4946457;28;20471;-62
2021/12/20 11:15:04;;;;;;;3.63;1.60;;;4.00;99.90;;;;;;4945876;28;20535;-63
2021/12/20 11:17:33;;;;;;;5.17;1.87;;;4.00;99.90;;;;;;4950206;28;20919;-62
2021/12/20 11:20:01;;;;;;;5.90;2.00;;;3.90;99.90;;;;;;4956123;28;20832;-62
2021/12/20 11:22:34;;;;;;;6.03;1.80;;;3.90;99.90;;;;;;4961397;28;20480;-63
2021/12/20 11:25:07;;;;;;;6.27;1.83;;;3.90;99.90;;;;;;4975460;28;20876;-63
2021/12/20 11:27:39;;;;;;;6.17;2.10;;;4.00;99.90;;;;;;4962751;28;21096;-63
2021/12/20 11:30:10;;;;;;;3.27;1.70;;;4.30;99.90;;;;;;4951869;28;20472;-63
2021/12/20 11:32:40;;;;;;;4.47;1.97;;;4.50;99.90;;;;;;4943498;28;20488;-63
2021/12/20 11:35:15;;;;;;;5.43;1.77;;;4.70;99.90;;;;;;4962384;28;20508;-63
2021/12/20 11:37:44;;;;;;;4.83;2.00;;;4.80;99.90;;;;;;4962845;28;20509;-63
2021/12/20 11:40:16;;;;;;;5.53;2.40;;;4.90;99.90;;;;;;4955783;28;20485;-63
2021/12/20 11:42:48;;;;;;;6.10;2.10;;;4.90;99.90;;;;;;4955355;28;20544;-63
2021/12/20 11:45:18;;;;;;;6.40;1.87;;;4.80;99.90;;;;;;4955564;28;20544;-63
2021/12/20 11:47:51;;;;;;;4.83;1.90;;;4.80;99.90;;;;;;4945148;28;20484;-63
2021/12/20 11:50:21;;;;;;;4.03;1.87;;;4.80;99.90;;;;;;4952793;28;20467;-63
2021/12/20 11:52:52;;;;;;;6.20;1.60;;;4.70;99.90;;;;;;4952272;28;20940;-63
2021/12/20 11:55:25;;;;;;;4.77;1.70;;;4.60;99.90;;;;;;4951921;28;20532;-63
2021/12/20 11:57:54;;;;;;;6.43;1.77;;;4.40;99.90;;;;;;4965122;28;20540;-63
2021/12/20 12:00:28;;;;;;;4.00;1.77;;;4.30;99.90;;;;;;4938648;28;20470;-63
2021/12/20 12:03:04;;;;;;;8.60;1.90;;;4.20;99.90;;;;;;4954537;28;20484;-63
2021/12/20 12:05:39;;;;;;;5.73;1.80;;;4.10;99.90;;;;;;4974164;28;20538;-63
2021/12/20 12:08:31;;;;;;;3.47;1.57;;;4.10;99.90;;;;;;4955663;28;20516;-63
2021/12/20 12:11:27;;;;;;;3.73;1.50;;;4.10;99.90;;;;;;4954727;28;20524;-63
2021/12/20 12:14:18;;;;;;;7.87;1.53;;;4.00;99.90;;;;;;4955026;28;20520;-63
2021/12/20 12:17:03;;;;;;;4.87;1.73;;;4.10;99.90;;;;;;4954610;28;20524;-63
2021/12/20 12:19:50;;;;;;;3.83;1.83;;;4.10;99.90;;;;;;4953215;28;21003;-63
2021/12/20 12:22:37;;;;;;;2.87;1.60;;;4.10;99.90;;;;;;4954784;28;20874;-63
2021/12/20 12:25:09;;;;;;;4.97;1.50;;;4.10;99.90;;;;;;4954585;28;20506;-63
2021/12/20 12:27:44;;;;;;;4.67;1.83;;;4.10;99.90;;;;;;4961165;28;20480;-63
2021/12/20 12:30:32;;;;;;;4.43;2.00;;;4.20;99.90;;;;;;4974003;28;20490;-63
2021/12/20 12:33:31;;;;;;;5.07;1.90;;;4.30;99.90;;;;;;4973337;28;21088;-63
2021/12/20 12:36:06;;;;;;;5.90;1.80;;;4.30;99.90;;;;;;319948;28;10023043;-62
2021/12/20 12:38:36;;;;;;;6.30;2.13;;;4.30;99.90;;;;;;4969279;28;20260;-63
2021/12/20 12:41:20;;;;;;;6.23;1.87;;;4.30;99.90;;;;;;4973809;28;20518;-63
2021/12/20 12:44:12;;;;;;;6.23;2.03;;;4.30;99.90;;;;;;4973485;28;20492;-63
2021/12/20 12:47:00;;;;;;;4.50;2.37;;;4.30;99.90;;;;;;4961746;28;20477;-63
2021/12/20 12:49:56;;;;;;;7.67;2.03;;;4.30;99.90;;;;;;4951001;28;20894;-63
2021/12/20 12:52:34;;;;;;;3.73;1.67;;;4.30;99.90;;;;;;4954350;28;21001;-63
2021/12/20 12:55:28;;;;;;;5.37;2.03;;;4.30;99.90;;;;;;4954113;28;20919;-63
2021/12/20 12:57:57;;;;;;;4.40;1.73;;;4.30;99.90;;;;;;4964576;28;20458;-63
2021/12/20 13:00:33;;;;;;;4.53;1.93;;;4.20;99.90;;;;;;4973588;28;20473;-63
2021/12/20 13:03:13;;;;;;;3.97;1.90;;;4.20;99.90;;;;;;4963171;28;20517;-63
2021/12/20 13:05:44;;;;;;;8.30;2.10;;;4.20;99.90;;;;;;4954086;28;20478;-63
2021/12/20 13:08:13;;;;;;;4.77;1.70;;;4.30;99.90;;;;;;4953837;28;20493;-63
2021/12/20 13:10:44;;;;;;;6.50;2.07;;;4.30;99.90;;;;;;4953514;28;20487;-63
2021/12/20 13:13:19;;;;;;;5.37;1.90;;;4.30;99.90;;;;;;4953579;28;20567;-63
2021/12/20 13:15:55;;;;;;;4.13;1.90;;;4.30;99.90;;;;;;4953893;28;20469;-63
2021/12/20 13:18:31;;;;;;;3.33;2.00;;;4.20;99.90;;;;;;4953897;28;21025;-63